sensor_id;sensor_type;location;lat;lon;timestamp;temperature;humidity
9544;DHT22;30418;51.45933468;7.33152330;2022-11-09T00:01:27;17.30;61.10
9544;DHT22;30418;51.45933468;7.33152330;2022-11-09T00:03:57;17.30;61.10
9544;DHT22;30418;51.45933468;7.33152330;2022-11-09T00:06:31;17.30;61.10
9544;DHT22;30418;51.45933468;7.33152330;2022-11-09T00:09:02;17.40;61.30
9544;DHT22;30418;51.45933468;7.33152330;2022-11-09T00:11:35;17.40;61.20
9544;DHT22;30418;51.45933468;7.33152330;2022-11-09T00:14:04;17.40;61.30
9544;DHT22;30418;51.45933468;7.33152330;2022-11-09T00:16:33;17.30;61.20
9544;DHT22;30418;51.45933468;7.33152330;2022-11-09T00:19:02;17.30;61.20
9544;DHT22;30418;51.45933468;7.33152330;2022-11-09T00:21:32;17.30;61.20
9544;DHT22;30418;51.45933468;7.33152330;2022-11-09T00:24:01;17.40;61.30
9544;DHT22;30418;51.45933468;7.33152330;2022-11-09T00:26:29;17.40;61.30
9544;DHT22;30418;51.45933468;7.33152330;2022-11-09T00:28:58;17.40;61.30
9544;DHT22;30418;51.45933468;7.33152330;2022-11-09T00:31:27;17.30;61.20
9544;DHT22;30418;51.45933468;7.33152330;2022-11-09T00:33:56;17.40;61.40
9544;DHT22;30418;51.45933468;7.33152330;2022-11-09T00:36:26;17.30;61.20
9544;DHT22;30418;51.45933468;7.33152330;2022-11-09T00:38:59;17.30;61.20
9544;DHT22;30418;51.45933468;7.33152330;2022-11-09T00:41:28;17.30;61.30
9544;DHT22;30418;51.45933468;7.33152330;2022-11-09T00:43:57;17.30;61.20
9544;DHT22;30418;51.45933468;7.33152330;2022-11-09T00:46:26;17.30;61.30
9544;DHT22;30418;51.45933468;7.33152330;2022-11-09T00:48:55;17.30;61.20
9544;DHT22;30418;51.45933468;7.33152330;2022-11-09T00:51:24;17.30;61.30
9544;DHT22;30418;51.45933468;7.33152330;2022-11-09T00:53:54;17.30;61.20
9544;DHT22;30418;51.45933468;7.33152330;2022-11-09T00:56:24;17.30;61.20
9544;DHT22;30418;51.45933468;7.33152330;2022-11-09T00:58:54;17.30;61.20
9544;DHT22;30418;51.45933468;7.33152330;2022-11-09T01:01:23;17.30;61.20
9544;DHT22;30418;51.45933468;7.33152330;2022-11-09T01:03:52;17.30;61.20
9544;DHT22;30418;51.45933468;7.33152330;2022-11-09T01:06:22;17.30;61.30
9544;DHT22;30418;51.45933468;7.33152330;2022-11-09T01:08:52;17.30;61.30
9544;DHT22;30418;51.45933468;7.33152330;2022-11-09T01:11:23;17.30;61.20
9544;DHT22;30418;51.45933468;7.33152330;2022-11-09T01:13:53;17.30;61.30
9544;DHT22;30418;51.45933468;7.33152330;2022-11-09T01:16:22;17.30;61.30
9544;DHT22;30418;51.45933468;7.33152330;2022-11-09T01:18:55;17.30;61.30
9544;DHT22;30418;51.45933468;7.33152330;2022-11-09T01:21:25;17.30;61.30
9544;DHT22;30418;51.45933468;7.33152330;2022-11-09T01:23:55;17.30;61.30
9544;DHT22;30418;51.45933468;7.33152330;2022-11-09T01:26:28;17.30;61.30
9544;DHT22;30418;51.45933468;7.33152330;2022-11-09T01:28:56;17.20;61.30
9544;DHT22;30418;51.45933468;7.33152330;2022-11-09T01:31:25;17.30;61.40
9544;DHT22;30418;51.45933468;7.33152330;2022-11-09T01:33:54;17.20;61.30
9544;DHT22;30418;51.45933468;7.33152330;2022-11-09T01:36:24;17.20;61.30
9544;DHT22;30418;51.45933468;7.33152330;2022-11-09T01:38:52;17.20;61.30
9544;DHT22;30418;51.45933468;7.33152330;2022-11-09T01:41:22;17.20;61.30
9544;DHT22;30418;51.45933468;7.33152330;2022-11-09T01:44:10;17.20;61.40
9544;DHT22;30418;51.45933468;7.33152330;2022-11-09T01:46:44;17.20;62.40
9544;DHT22;30418;51.45933468;7.33152330;2022-11-09T01:49:21;17.20;61.50
9544;DHT22;30418;51.45933468;7.33152330;2022-11-09T01:51:58;17.20;61.50
9544;DHT22;30418;51.45933468;7.33152330;2022-11-09T01:54:36;17.20;61.60
9544;DHT22;30418;51.45933468;7.33152330;2022-11-09T01:57:10;17.20;61.60
9544;DHT22;30418;51.45933468;7.33152330;2022-11-09T01:59:53;17.20;61.60
9544;DHT22;30418;51.45933468;7.33152330;2022-11-09T02:02:23;17.20;61.60
9544;DHT22;30418;51.45933468;7.33152330;2022-11-09T02:04:55;17.10;61.50
9544;DHT22;30418;51.45933468;7.33152330;2022-11-09T02:07:25;17.20;61.70
9544;DHT22;30418;51.45933468;7.33152330;2022-11-09T02:10:00;17.20;61.70
9544;DHT22;30418;51.45933468;7.33152330;2022-11-09T02:12:32;17.10;61.60
9544;DHT22;30418;51.45933468;7.33152330;2022-11-09T02:15:05;17.20;61.70
9544;DHT22;30418;51.45933468;7.33152330;2022-11-09T02:17:36;17.10;61.60
9544;DHT22;30418;51.45933468;7.33152330;2022-11-09T02:20:09;17.10;61.60
9544;DHT22;30418;51.45933468;7.33152330;2022-11-09T02:22:39;17.10;61.60
9544;DHT22;30418;51.45933468;7.33152330;2022-11-09T02:25:09;17.10;61.60
9544;DHT22;30418;51.45933468;7.33152330;2022-11-09T02:27:38;17.10;61.60
9544;DHT22;30418;51.45933468;7.33152330;2022-11-09T02:30:08;17.10;61.60
9544;DHT22;30418;51.45933468;7.33152330;2022-11-09T02:32:38;17.10;61.60
9544;DHT22;30418;51.45933468;7.33152330;2022-11-09T02:35:09;17.10;61.60
9544;DHT22;30418;51.45933468;7.33152330;2022-11-09T02:37:38;17.10;61.60
9544;DHT22;30418;51.45933468;7.33152330;2022-11-09T02:40:13;17.10;61.60
9544;DHT22;30418;51.45933468;7.33152330;2022-11-09T02:42:44;17.00;61.60
9544;DHT22;30418;51.45933468;7.33152330;2022-11-09T02:45:13;17.00;61.60
9544;DHT22;30418;51.45933468;7.33152330;2022-11-09T02:47:42;17.00;61.60
9544;DHT22;30418;51.45933468;7.33152330;2022-11-09T02:50:12;17.00;61.60
9544;DHT22;30418;51.45933468;7.33152330;2022-11-09T02:52:41;17.00;61.60
9544;DHT22;30418;51.45933468;7.33152330;2022-11-09T02:55:10;17.00;61.60
9544;DHT22;30418;51.45933468;7.33152330;2022-11-09T02:57:39;17.00;61.70
9544;DHT22;30418;51.45933468;7.33152330;2022-11-09T03:00:11;17.00;61.70
9544;DHT22;30418;51.45933468;7.33152330;2022-11-09T03:02:42;17.00;61.70
9544;DHT22;30418;51.45933468;7.33152330;2022-11-09T03:05:12;16.90;61.60
9544;DHT22;30418;51.45933468;7.33152330;2022-11-09T03:07:43;16.90;61.60
9544;DHT22;30418;51.45933468;7.33152330;2022-11-09T03:10:13;17.00;61.70
9544;DHT22;30418;51.45933468;7.33152330;2022-11-09T03:12:41;16.90;61.60
9544;DHT22;30418;51.45933468;7.33152330;2022-11-09T03:15:13;16.90;61.70
9544;DHT22;30418;51.45933468;7.33152330;2022-11-09T03:17:45;16.90;61.60
9544;DHT22;30418;51.45933468;7.33152330;2022-11-09T03:20:16;16.90;61.70
9544;DHT22;30418;51.45933468;7.33152330;2022-11-09T03:22:46;16.90;61.80
9544;DHT22;30418;51.45933468;7.33152330;2022-11-09T03:25:15;16.90;61.80
9544;DHT22;30418;51.45933468;7.33152330;2022-11-09T03:27:44;16.90;61.80
9544;DHT22;30418;51.45933468;7.33152330;2022-11-09T03:30:13;16.80;61.80
9544;DHT22;30418;51.45933468;7.33152330;2022-11-09T03:32:45;16.90;61.90
9544;DHT22;30418;51.45933468;7.33152330;2022-11-09T03:35:18;16.90;62.00
9544;DHT22;30418;51.45933468;7.33152330;2022-11-09T03:37:47;16.80;62.70
9544;DHT22;30418;51.45933468;7.33152330;2022-11-09T03:40:16;16.80;61.90
9544;DHT22;30418;51.45933468;7.33152330;2022-11-09T03:42:48;16.80;61.90
9544;DHT22;30418;51.45933468;7.33152330;2022-11-09T03:45:16;16.80;61.90
9544;DHT22;30418;51.45933468;7.33152330;2022-11-09T03:47:45;16.80;62.80
9544;DHT22;30418;51.45933468;7.33152330;2022-11-09T03:50:16;16.80;62.00
9544;DHT22;30418;51.45933468;7.33152330;2022-11-09T03:52:46;16.90;62.10
9544;DHT22;30418;51.45933468;7.33152330;2022-11-09T03:55:15;16.80;62.10
9544;DHT22;30418;51.45933468;7.33152330;2022-11-09T03:57:44;16.80;62.10
9544;DHT22;30418;51.45933468;7.33152330;2022-11-09T04:00:15;16.80;62.10
9544;DHT22;30418;51.45933468;7.33152330;2022-11-09T04:02:49;16.80;62.10
9544;DHT22;30418;51.45933468;7.33152330;2022-11-09T04:05:19;16.90;62.30
9544;DHT22;30418;51.45933468;7.33152330;2022-11-09T04:07:48;16.90;62.30
9544;DHT22;30418;51.45933468;7.33152330;2022-11-09T04:10:18;16.80;62.20
9544;DHT22;30418;51.45933468;7.33152330;2022-11-09T04:12:46;16.90;62.40
9544;DHT22;30418;51.45933468;7.33152330;2022-11-09T04:15:16;16.90;62.40
9544;DHT22;30418;51.45933468;7.33152330;2022-11-09T04:17:45;16.90;62.50
9544;DHT22;30418;51.45933468;7.33152330;2022-11-09T04:20:23;16.90;62.50
9544;DHT22;30418;51.45933468;7.33152330;2022-11-09T04:22:56;16.90;62.80
9544;DHT22;30418;51.45933468;7.33152330;2022-11-09T04:25:27;16.90;62.90
9544;DHT22;30418;51.45933468;7.33152330;2022-11-09T04:27:57;16.90;63.00
9544;DHT22;30418;51.45933468;7.33152330;2022-11-09T04:30:27;16.90;63.20
9544;DHT22;30418;51.45933468;7.33152330;2022-11-09T04:32:58;16.90;63.40
9544;DHT22;30418;51.45933468;7.33152330;2022-11-09T04:35:29;16.90;63.40
9544;DHT22;30418;51.45933468;7.33152330;2022-11-09T04:38:01;16.80;63.40
9544;DHT22;30418;51.45933468;7.33152330;2022-11-09T04:40:31;16.90;63.60
9544;DHT22;30418;51.45933468;7.33152330;2022-11-09T04:43:02;16.80;63.50
9544;DHT22;30418;51.45933468;7.33152330;2022-11-09T04:45:32;16.80;63.50
9544;DHT22;30418;51.45933468;7.33152330;2022-11-09T04:48:03;16.80;63.60
9544;DHT22;30418;51.45933468;7.33152330;2022-11-09T04:50:35;16.80;63.70
9544;DHT22;30418;51.45933468;7.33152330;2022-11-09T04:53:05;16.80;63.80
9544;DHT22;30418;51.45933468;7.33152330;2022-11-09T04:55:35;16.80;63.90
9544;DHT22;30418;51.45933468;7.33152330;2022-11-09T04:58:04;16.80;63.90
9544;DHT22;30418;51.45933468;7.33152330;2022-11-09T05:00:33;16.80;63.90
9544;DHT22;30418;51.45933468;7.33152330;2022-11-09T05:03:05;16.80;63.90
9544;DHT22;30418;51.45933468;7.33152330;2022-11-09T05:05:38;16.80;64.00
9544;DHT22;30418;51.45933468;7.33152330;2022-11-09T05:08:14;16.70;64.10
9544;DHT22;30418;51.45933468;7.33152330;2022-11-09T05:10:42;16.80;64.00
9544;DHT22;30418;51.45933468;7.33152330;2022-11-09T05:13:12;16.80;64.00
9544;DHT22;30418;51.45933468;7.33152330;2022-11-09T05:15:41;16.70;64.10
9544;DHT22;30418;51.45933468;7.33152330;2022-11-09T05:18:09;16.70;64.10
9544;DHT22;30418;51.45933468;7.33152330;2022-11-09T05:20:39;16.70;64.20
9544;DHT22;30418;51.45933468;7.33152330;2022-11-09T05:23:08;16.80;64.30
9544;DHT22;30418;51.45933468;7.33152330;2022-11-09T05:25:54;16.70;64.30
9544;DHT22;30418;51.45933468;7.33152330;2022-11-09T05:28:23;16.70;64.30
9544;DHT22;30418;51.45933468;7.33152330;2022-11-09T05:30:51;16.70;64.50
9544;DHT22;30418;51.45933468;7.33152330;2022-11-09T05:33:20;16.70;64.50
9544;DHT22;30418;51.45933468;7.33152330;2022-11-09T05:35:52;16.70;64.70
9544;DHT22;30418;51.45933468;7.33152330;2022-11-09T05:38:21;16.70;64.80
9544;DHT22;30418;51.45933468;7.33152330;2022-11-09T05:40:50;16.70;64.80
9544;DHT22;30418;51.45933468;7.33152330;2022-11-09T05:43:19;16.60;64.70
9544;DHT22;30418;51.45933468;7.33152330;2022-11-09T05:45:48;16.60;64.80
9544;DHT22;30418;51.45933468;7.33152330;2022-11-09T05:48:17;16.60;64.90
9544;DHT22;30418;51.45933468;7.33152330;2022-11-09T05:50:46;16.60;65.00
9544;DHT22;30418;51.45933468;7.33152330;2022-11-09T05:53:21;16.60;64.90
9544;DHT22;30418;51.45933468;7.33152330;2022-11-09T05:55:50;16.60;65.00
9544;DHT22;30418;51.45933468;7.33152330;2022-11-09T05:58:19;16.50;64.90
9544;DHT22;30418;51.45933468;7.33152330;2022-11-09T06:00:47;16.50;64.90
9544;DHT22;30418;51.45933468;7.33152330;2022-11-09T06:03:15;16.50;65.00
9544;DHT22;30418;51.45933468;7.33152330;2022-11-09T06:05:45;16.50;65.00
9544;DHT22;30418;51.45933468;7.33152330;2022-11-09T06:08:14;16.50;65.00
9544;DHT22;30418;51.45933468;7.33152330;2022-11-09T06:10:44;16.50;65.00
9544;DHT22;30418;51.45933468;7.33152330;2022-11-09T06:13:12;16.50;64.90
9544;DHT22;30418;51.45933468;7.33152330;2022-11-09T06:15:41;16.50;64.90
9544;DHT22;30418;51.45933468;7.33152330;2022-11-09T06:18:09;16.40;64.70
9544;DHT22;30418;51.45933468;7.33152330;2022-11-09T06:20:38;16.40;64.60
9544;DHT22;30418;51.45933468;7.33152330;2022-11-09T06:23:07;16.40;64.60
9544;DHT22;30418;51.45933468;7.33152330;2022-11-09T06:25:37;16.40;64.80
9544;DHT22;30418;51.45933468;7.33152330;2022-11-09T06:28:07;16.30;64.70
9544;DHT22;30418;51.45933468;7.33152330;2022-11-09T06:30:36;16.30;64.90
9544;DHT22;30418;51.45933468;7.33152330;2022-11-09T06:33:04;16.30;64.80
9544;DHT22;30418;51.45933468;7.33152330;2022-11-09T06:35:33;16.30;64.80
9544;DHT22;30418;51.45933468;7.33152330;2022-11-09T06:38:01;16.30;64.90
9544;DHT22;30418;51.45933468;7.33152330;2022-11-09T06:40:30;16.30;65.00
9544;DHT22;30418;51.45933468;7.33152330;2022-11-09T06:43:00;16.30;65.10
9544;DHT22;30418;51.45933468;7.33152330;2022-11-09T06:45:30;16.30;65.20
9544;DHT22;30418;51.45933468;7.33152330;2022-11-09T06:48:01;16.30;65.30
9544;DHT22;30418;51.45933468;7.33152330;2022-11-09T06:50:31;16.30;65.30
9544;DHT22;30418;51.45933468;7.33152330;2022-11-09T06:53:02;16.30;65.20
9544;DHT22;30418;51.45933468;7.33152330;2022-11-09T06:55:33;16.20;65.10
9544;DHT22;30418;51.45933468;7.33152330;2022-11-09T06:58:04;16.30;65.20
9544;DHT22;30418;51.45933468;7.33152330;2022-11-09T07:00:35;16.30;65.20
9544;DHT22;30418;51.45933468;7.33152330;2022-11-09T07:03:04;16.20;65.00
9544;DHT22;30418;51.45933468;7.33152330;2022-11-09T07:05:37;16.20;65.00
9544;DHT22;30418;51.45933468;7.33152330;2022-11-09T07:08:06;16.20;65.20
9544;DHT22;30418;51.45933468;7.33152330;2022-11-09T07:10:35;16.20;65.00
9544;DHT22;30418;51.45933468;7.33152330;2022-11-09T07:13:04;16.20;65.00
9544;DHT22;30418;51.45933468;7.33152330;2022-11-09T07:15:35;16.20;64.90
9544;DHT22;30418;51.45933468;7.33152330;2022-11-09T07:18:06;16.20;65.00
9544;DHT22;30418;51.45933468;7.33152330;2022-11-09T07:20:37;16.20;65.00
9544;DHT22;30418;51.45933468;7.33152330;2022-11-09T07:23:06;16.20;64.90
9544;DHT22;30418;51.45933468;7.33152330;2022-11-09T07:25:34;16.20;65.00
9544;DHT22;30418;51.45933468;7.33152330;2022-11-09T07:28:04;16.10;65.00
9544;DHT22;30418;51.45933468;7.33152330;2022-11-09T07:30:38;16.10;65.00
9544;DHT22;30418;51.45933468;7.33152330;2022-11-09T07:33:11;16.10;65.20
9544;DHT22;30418;51.45933468;7.33152330;2022-11-09T07:35:41;16.10;66.00
9544;DHT22;30418;51.45933468;7.33152330;2022-11-09T07:38:10;16.10;65.20
9544;DHT22;30418;51.45933468;7.33152330;2022-11-09T07:40:38;16.10;65.20
9544;DHT22;30418;51.45933468;7.33152330;2022-11-09T07:43:09;16.10;65.30
9544;DHT22;30418;51.45933468;7.33152330;2022-11-09T07:45:40;16.10;65.20
9544;DHT22;30418;51.45933468;7.33152330;2022-11-09T07:48:11;16.10;65.20
9544;DHT22;30418;51.45933468;7.33152330;2022-11-09T07:50:40;16.10;65.20
9544;DHT22;30418;51.45933468;7.33152330;2022-11-09T07:53:11;16.10;65.20
9544;DHT22;30418;51.45933468;7.33152330;2022-11-09T07:55:41;16.10;65.20
9544;DHT22;30418;51.45933468;7.33152330;2022-11-09T07:58:12;16.10;65.20
9544;DHT22;30418;51.45933468;7.33152330;2022-11-09T08:00:42;16.10;65.20
9544;DHT22;30418;51.45933468;7.33152330;2022-11-09T08:03:11;16.10;65.20
9544;DHT22;30418;51.45933468;7.33152330;2022-11-09T08:05:40;16.10;65.10
9544;DHT22;30418;51.45933468;7.33152330;2022-11-09T08:08:10;16.10;65.10
9544;DHT22;30418;51.45933468;7.33152330;2022-11-09T08:10:39;16.10;65.20
9544;DHT22;30418;51.45933468;7.33152330;2022-11-09T08:13:11;16.10;65.10
9544;DHT22;30418;51.45933468;7.33152330;2022-11-09T08:15:40;16.10;65.10
9544;DHT22;30418;51.45933468;7.33152330;2022-11-09T08:18:13;16.10;65.10
9544;DHT22;30418;51.45933468;7.33152330;2022-11-09T08:20:43;16.10;65.20
9544;DHT22;30418;51.45933468;7.33152330;2022-11-09T08:23:12;16.10;65.20
9544;DHT22;30418;51.45933468;7.33152330;2022-11-09T08:25:41;16.10;65.20
9544;DHT22;30418;51.45933468;7.33152330;2022-11-09T08:28:10;16.10;65.20
9544;DHT22;30418;51.45933468;7.33152330;2022-11-09T08:30:44;16.10;65.20
9544;DHT22;30418;51.45933468;7.33152330;2022-11-09T08:33:13;16.10;66.10
9544;DHT22;30418;51.45933468;7.33152330;2022-11-09T08:35:41;16.10;65.20
9544;DHT22;30418;51.45933468;7.33152330;2022-11-09T08:38:15;16.10;65.20
9544;DHT22;30418;51.45933468;7.33152330;2022-11-09T08:40:44;16.10;65.20
9544;DHT22;30418;51.45933468;7.33152330;2022-11-09T08:43:13;16.10;65.20
9544;DHT22;30418;51.45933468;7.33152330;2022-11-09T08:45:43;16.20;65.30
9544;DHT22;30418;51.45933468;7.33152330;2022-11-09T08:48:12;16.10;65.40
9544;DHT22;30418;51.45933468;7.33152330;2022-11-09T08:50:41;16.20;65.50
9544;DHT22;30418;51.45933468;7.33152330;2022-11-09T08:53:09;16.20;65.60
9544;DHT22;30418;51.45933468;7.33152330;2022-11-09T08:55:38;16.20;65.60
9544;DHT22;30418;51.45933468;7.33152330;2022-11-09T08:58:06;16.20;65.60
9544;DHT22;30418;51.45933468;7.33152330;2022-11-09T09:00:36;16.30;65.90
9544;DHT22;30418;51.45933468;7.33152330;2022-11-09T09:03:06;16.30;65.80
9544;DHT22;30418;51.45933468;7.33152330;2022-11-09T09:05:35;16.30;65.90
9544;DHT22;30418;51.45933468;7.33152330;2022-11-09T09:08:05;16.30;65.90
9544;DHT22;30418;51.45933468;7.33152330;2022-11-09T09:10:34;16.30;65.90
9544;DHT22;30418;51.45933468;7.33152330;2022-11-09T09:13:04;16.40;66.00
9544;DHT22;30418;51.45933468;7.33152330;2022-11-09T09:15:35;16.40;65.90
9544;DHT22;30418;51.45933468;7.33152330;2022-11-09T09:18:06;16.40;65.80
9544;DHT22;30418;51.45933468;7.33152330;2022-11-09T09:20:35;16.40;65.80
9544;DHT22;30418;51.45933468;7.33152330;2022-11-09T09:23:03;16.50;65.80
9544;DHT22;30418;51.45933468;7.33152330;2022-11-09T09:25:32;16.50;65.80
9544;DHT22;30418;51.45933468;7.33152330;2022-11-09T09:28:00;16.50;65.70
9544;DHT22;30418;51.45933468;7.33152330;2022-11-09T09:30:28;16.50;65.70
9544;DHT22;30418;51.45933468;7.33152330;2022-11-09T09:32:58;16.60;65.70
9544;DHT22;30418;51.45933468;7.33152330;2022-11-09T09:35:28;16.60;65.70
9544;DHT22;30418;51.45933468;7.33152330;2022-11-09T09:37:57;16.60;65.50
9544;DHT22;30418;51.45933468;7.33152330;2022-11-09T09:40:34;16.60;65.40
9544;DHT22;30418;51.45933468;7.33152330;2022-11-09T09:43:12;16.70;65.40
9544;DHT22;30418;51.45933468;7.33152330;2022-11-09T09:45:49;16.70;65.30
9544;DHT22;30418;51.45933468;7.33152330;2022-11-09T09:48:26;16.70;65.10
9544;DHT22;30418;51.45933468;7.33152330;2022-11-09T09:51:03;16.70;64.80
9544;DHT22;30418;51.45933468;7.33152330;2022-11-09T09:53:41;16.70;64.50
9544;DHT22;30418;51.45933468;7.33152330;2022-11-09T09:56:15;16.80;64.40
9544;DHT22;30418;51.45933468;7.33152330;2022-11-09T09:58:50;16.80;64.30
9544;DHT22;30418;51.45933468;7.33152330;2022-11-09T10:01:23;16.80;64.20
9544;DHT22;30418;51.45933468;7.33152330;2022-11-09T10:03:56;16.80;64.10
9544;DHT22;30418;51.45933468;7.33152330;2022-11-09T10:06:36;16.80;64.10
9544;DHT22;30418;51.45933468;7.33152330;2022-11-09T10:09:20;16.90;64.00
9544;DHT22;30418;51.45933468;7.33152330;2022-11-09T10:11:55;16.90;63.90
9544;DHT22;30418;51.45933468;7.33152330;2022-11-09T10:14:43;16.90;63.70
9544;DHT22;30418;51.45933468;7.33152330;2022-11-09T10:17:26;16.90;63.50
9544;DHT22;30418;51.45933468;7.33152330;2022-11-09T10:20:06;17.00;63.60
9544;DHT22;30418;51.45933468;7.33152330;2022-11-09T10:22:51;17.00;63.20
9544;DHT22;30418;51.45933468;7.33152330;2022-11-09T10:25:30;17.00;63.00
9544;DHT22;30418;51.45933468;7.33152330;2022-11-09T10:28:24;17.00;63.00
9544;DHT22;30418;51.45933468;7.33152330;2022-11-09T10:31:14;17.00;62.70
9544;DHT22;30418;51.45933468;7.33152330;2022-11-09T10:33:48;17.10;62.70
9544;DHT22;30418;51.45933468;7.33152330;2022-11-09T10:36:23;17.10;62.70
9544;DHT22;30418;51.45933468;7.33152330;2022-11-09T10:38:59;17.10;62.40
9544;DHT22;30418;51.45933468;7.33152330;2022-11-09T10:41:46;17.10;62.10
9544;DHT22;30418;51.45933468;7.33152330;2022-11-09T10:44:33;17.10;62.10
9544;DHT22;30418;51.45933468;7.33152330;2022-11-09T10:47:21;17.10;62.10
9544;DHT22;30418;51.45933468;7.33152330;2022-11-09T10:50:20;17.10;62.10
9544;DHT22;30418;51.45933468;7.33152330;2022-11-09T10:53:16;17.10;61.90
9544;DHT22;30418;51.45933468;7.33152330;2022-11-09T10:56:10;17.10;62.00
9544;DHT22;30418;51.45933468;7.33152330;2022-11-09T11:02:42;17.10;61.60
9544;DHT22;30418;51.45933468;7.33152330;2022-11-09T11:05:32;17.10;61.70
9544;DHT22;30418;51.45933468;7.33152330;2022-11-09T11:08:29;17.10;61.80
9544;DHT22;30418;51.45933468;7.33152330;2022-11-09T11:11:29;17.10;61.80
9544;DHT22;30418;51.45933468;7.33152330;2022-11-09T11:14:25;17.10;61.80
9544;DHT22;30418;51.45933468;7.33152330;2022-11-09T11:17:23;17.10;61.90
9544;DHT22;30418;51.45933468;7.33152330;2022-11-09T11:20:33;17.10;61.80
9544;DHT22;30418;51.45933468;7.33152330;2022-11-09T11:23:22;17.10;61.50
9544;DHT22;30418;51.45933468;7.33152330;2022-11-09T11:26:26;17.20;61.70
9544;DHT22;30418;51.45933468;7.33152330;2022-11-09T11:29:42;17.20;61.00
9544;DHT22;30418;51.45933468;7.33152330;2022-11-09T11:32:32;17.20;60.80
9544;DHT22;30418;51.45933468;7.33152330;2022-11-09T11:35:26;17.20;61.00
9544;DHT22;30418;51.45933468;7.33152330;2022-11-09T11:38:21;17.20;60.60
9544;DHT22;30418;51.45933468;7.33152330;2022-11-09T11:44:52;17.30;60.20
9544;DHT22;30418;51.45933468;7.33152330;2022-11-09T11:48:27;17.30;60.00
9544;DHT22;30418;51.45933468;7.33152330;2022-11-09T11:51:41;17.30;59.90
9544;DHT22;30418;51.45933468;7.33152330;2022-11-09T11:54:40;17.30;60.00
9544;DHT22;30418;51.45933468;7.33152330;2022-11-09T11:57:39;17.30;59.70
9544;DHT22;30418;51.45933468;7.33152330;2022-11-09T12:00:36;17.30;59.60
9544;DHT22;30418;51.45933468;7.33152330;2022-11-09T12:03:41;17.30;59.40
9544;DHT22;30418;51.45933468;7.33152330;2022-11-09T12:06:53;17.30;59.10
9544;DHT22;30418;51.45933468;7.33152330;2022-11-09T12:13:30;17.30;58.80
9544;DHT22;30418;51.45933468;7.33152330;2022-11-09T12:16:38;17.30;58.80
9544;DHT22;30418;51.45933468;7.33152330;2022-11-09T12:23:00;17.30;58.60
9544;DHT22;30418;51.45933468;7.33152330;2022-11-09T12:26:06;17.30;58.80
9544;DHT22;30418;51.45933468;7.33152330;2022-11-09T12:29:14;17.30;58.60
9544;DHT22;30418;51.45933468;7.33152330;2022-11-09T12:32:11;17.30;58.40
9544;DHT22;30418;51.45933468;7.33152330;2022-11-09T12:35:23;17.30;58.40
9544;DHT22;30418;51.45933468;7.33152330;2022-11-09T12:38:18;17.30;58.20
9544;DHT22;30418;51.45933468;7.33152330;2022-11-09T12:41:11;17.30;58.40
9544;DHT22;30418;51.45933468;7.33152330;2022-11-09T12:44:05;17.40;58.40
9544;DHT22;30418;51.45933468;7.33152330;2022-11-09T12:47:04;17.40;58.40
9544;DHT22;30418;51.45933468;7.33152330;2022-11-09T12:49:54;17.40;58.40
9544;DHT22;30418;51.45933468;7.33152330;2022-11-09T12:52:43;17.40;58.40
9544;DHT22;30418;51.45933468;7.33152330;2022-11-09T12:55:37;17.50;58.30
9544;DHT22;30418;51.45933468;7.33152330;2022-11-09T12:58:29;17.50;57.90
9544;DHT22;30418;51.45933468;7.33152330;2022-11-09T13:01:47;17.50;58.00
9544;DHT22;30418;51.45933468;7.33152330;2022-11-09T13:04:37;17.50;57.90
9544;DHT22;30418;51.45933468;7.33152330;2022-11-09T13:07:31;17.50;57.90
9544;DHT22;30418;51.45933468;7.33152330;2022-11-09T13:10:30;17.50;57.90
9544;DHT22;30418;51.45933468;7.33152330;2022-11-09T13:13:22;17.50;57.90
9544;DHT22;30418;51.45933468;7.33152330;2022-11-09T13:19:50;17.50;57.60
9544;DHT22;30418;51.45933468;7.33152330;2022-11-09T13:22:59;17.40;57.10
9544;DHT22;30418;51.45933468;7.33152330;2022-11-09T13:25:49;17.40;57.10
9544;DHT22;30418;51.45933468;7.33152330;2022-11-09T13:32:30;17.30;56.90
9544;DHT22;30418;51.45933468;7.33152330;2022-11-09T13:35:56;17.30;56.90
9544;DHT22;30418;51.45933468;7.33152330;2022-11-09T13:39:29;17.30;57.10
9544;DHT22;30418;51.45933468;7.33152330;2022-11-09T13:42:26;17.30;57.00
9544;DHT22;30418;51.45933468;7.33152330;2022-11-09T13:45:26;17.30;57.30
9544;DHT22;30418;51.45933468;7.33152330;2022-11-09T13:48:35;17.30;57.60
9544;DHT22;30418;51.45933468;7.33152330;2022-11-09T13:51:42;17.30;57.40
9544;DHT22;30418;51.45933468;7.33152330;2022-11-09T13:54:31;17.30;57.30
9544;DHT22;30418;51.45933468;7.33152330;2022-11-09T13:57:20;17.30;57.60
9544;DHT22;30418;51.45933468;7.33152330;2022-11-09T14:00:14;17.30;57.40
9544;DHT22;30418;51.45933468;7.33152330;2022-11-09T14:03:17;17.30;57.20
9544;DHT22;30418;51.45933468;7.33152330;2022-11-09T14:06:10;17.30;57.10
9544;DHT22;30418;51.45933468;7.33152330;2022-11-09T14:09:00;17.30;57.30
9544;DHT22;30418;51.45933468;7.33152330;2022-11-09T14:11:58;17.30;57.30
9544;DHT22;30418;51.45933468;7.33152330;2022-11-09T14:15:00;17.30;57.30
9544;DHT22;30418;51.45933468;7.33152330;2022-11-09T14:18:15;17.30;57.30
9544;DHT22;30418;51.45933468;7.33152330;2022-11-09T14:21:16;17.30;57.30
9544;DHT22;30418;51.45933468;7.33152330;2022-11-09T14:24:15;17.30;57.30
9544;DHT22;30418;51.45933468;7.33152330;2022-11-09T14:27:14;17.30;57.40
9544;DHT22;30418;51.45933468;7.33152330;2022-11-09T14:30:16;17.20;57.20
9544;DHT22;30418;51.45933468;7.33152330;2022-11-09T14:33:20;17.20;57.30
9544;DHT22;30418;51.45933468;7.33152330;2022-11-09T14:36:10;17.20;57.30
9544;DHT22;30418;51.45933468;7.33152330;2022-11-09T14:39:00;17.20;57.40
9544;DHT22;30418;51.45933468;7.33152330;2022-11-09T14:41:51;17.20;57.50
9544;DHT22;30418;51.45933468;7.33152330;2022-11-09T14:44:42;17.20;57.50
9544;DHT22;30418;51.45933468;7.33152330;2022-11-09T14:47:33;17.20;57.40
9544;DHT22;30418;51.45933468;7.33152330;2022-11-09T14:50:24;17.20;57.50
9544;DHT22;30418;51.45933468;7.33152330;2022-11-09T14:53:14;17.20;57.60